Time;durP1;ratioP1;P1;durP2;ratioP2;P2;SDS_P1;SDS_P2;PMS_P1;PMS_P2;Temp;Humidity;BMP_temperature;BMP_pressure;BME280_temperature;BME280_humidity;BME280_pressure;Samples;Min_cycle;Max_cycle;Signal;HPM_P1;HPM_P2
2022/06/03 00:00:00;;;;;;;7.90;7.10;;;11.10;99.90;;;;;;5073150;28;20933;-61
2022/06/03 00:03:03;;;;;;;8.07;7.27;;;11.00;99.90;;;;;;5073271;28;20457;-61
2022/06/03 00:05:51;;;;;;;7.23;6.60;;;11.00;99.90;;;;;;5105733;22;20865;-63
2022/06/03 00:08:48;;;;;;;8.33;6.70;;;11.00;99.90;;;;;;5093143;28;20463;-63
2022/06/03 00:11:32;;;;;;;7.60;6.77;;;10.90;99.90;;;;;;5093515;28;20893;-63
2022/06/03 00:14:29;;;;;;;7.70;6.33;;;10.90;99.90;;;;;;5093366;28;20982;-63
2022/06/03 00:17:06;;;;;;;11.20;6.60;;;10.90;99.90;;;;;;5073229;28;20484;-62
2022/06/03 00:19:50;;;;;;;7.33;6.63;;;10.80;99.90;;;;;;5072794;28;20798;-61
2022/06/03 00:22:33;;;;;;;7.70;6.77;;;10.80;99.90;;;;;;5073067;28;20962;-62
2022/06/03 00:25:44;;;;;;;8.13;6.83;;;10.70;99.90;;;;;;5073900;28;20469;-63
2022/06/03 00:28:30;;;;;;;9.80;6.90;;;10.70;99.90;;;;;;5077095;28;20450;-63
2022/06/03 00:31:14;;;;;;;8.70;7.20;;;10.70;99.90;;;;;;5077041;28;20462;-62
2022/06/03 00:34:01;;;;;;;8.37;7.57;;;10.60;99.90;;;;;;5077017;28;20550;-62
2022/06/03 00:36:56;;;;;;;6.87;6.17;;;10.60;99.90;;;;;;5076810;28;20471;-63
2022/06/03 00:39:42;;;;;;;9.10;7.53;;;10.50;99.90;;;;;;5074933;28;20975;-63
2022/06/03 00:42:34;;;;;;;7.13;6.43;;;10.40;99.90;;;;;;5077045;28;20506;-62
2022/06/03 00:45:24;;;;;;;10.90;8.30;;;10.40;99.90;;;;;;5076413;28;20459;-64
2022/06/03 00:48:08;;;;;;;9.60;8.60;;;10.40;99.90;;;;;;5073425;28;20886;-63
2022/06/03 00:50:59;;;;;;;8.80;7.73;;;10.30;99.90;;;;;;5076275;28;20425;-64
2022/06/03 00:53:51;;;;;;;9.15;8.32;;;10.30;99.90;;;;;;5076347;28;20421;-62
2022/06/03 00:56:35;;;;;;;8.87;7.97;;;10.20;99.90;;;;;;5076285;28;20259;-63
2022/06/03 00:59:17;;;;;;;9.43;8.53;;;10.20;99.90;;;;;;5076126;28;20541;-61
2022/06/03 01:01:59;;;;;;;9.80;8.03;;;10.20;99.90;;;;;;5076086;28;20437;-62
2022/06/03 01:04:39;;;;;;;8.60;7.75;;;10.10;99.90;;;;;;5075812;28;20520;-62
2022/06/03 01:07:16;;;;;;;11.52;7.35;;;10.10;99.90;;;;;;5076360;28;20237;-62
2022/06/03 01:10:00;;;;;;;10.73;7.35;;;10.10;99.90;;;;;;5076434;28;20277;-63
2022/06/03 01:12:59;;;;;;;7.55;5.90;;;10.10;99.90;;;;;;5076123;28;20646;-62
2022/06/03 01:15:37;;;;;;;6.70;6.10;;;10.00;99.90;;;;;;5075981;28;20763;-63
2022/06/03 01:18:18;;;;;;;9.13;6.70;;;10.00;99.90;;;;;;5075891;28;20462;-62
2022/06/03 01:21:03;;;;;;;7.00;6.38;;;10.00;99.90;;;;;;5075979;28;20244;-61
2022/06/03 01:24:09;;;;;;;6.53;5.90;;;10.00;99.90;;;;;;5076169;28;20241;-62
2022/06/03 01:27:04;;;;;;;7.30;6.30;;;10.00;99.90;;;;;;5058283;28;20649;-62
2022/06/03 01:29:46;;;;;;;7.10;6.40;;;9.90;99.90;;;;;;5075945;28;20429;-62
2022/06/03 01:32:55;;;;;;;7.90;7.10;;;9.90;99.90;;;;;;5077419;28;20461;-62
2022/06/03 01:35:52;;;;;;;17.85;6.95;;;9.90;99.90;;;;;;5079208;28;20541;-63
2022/06/03 01:38:33;;;;;;;9.40;7.53;;;9.80;99.90;;;;;;5078092;28;20213;-63
2022/06/03 01:41:15;;;;;;;9.55;7.28;;;9.70;99.90;;;;;;5081799;28;20192;-62
2022/06/03 01:44:17;;;;;;;7.47;6.78;;;9.70;99.90;;;;;;5083037;28;20660;-62
2022/06/03 01:47:27;;;;;;;6.95;6.35;;;9.70;99.90;;;;;;5084762;28;20200;-62
2022/06/03 01:50:21;;;;;;;7.25;6.65;;;9.70;99.90;;;;;;5041914;28;20260;-64
2022/06/03 01:53:13;;;;;;;6.60;6.10;;;9.60;99.90;;;;;;5077724;28;20188;-62
2022/06/03 01:56:19;;;;;;;6.90;6.35;;;9.60;99.90;;;;;;5076392;28;20249;-63
2022/06/03 01:59:10;;;;;;;7.28;6.57;;;9.50;99.90;;;;;;5076455;28;20184;-63
2022/06/03 02:02:13;;;;;;;8.23;6.47;;;9.50;99.90;;;;;;5078044;28;20192;-61
2022/06/03 02:05:07;;;;;;;8.30;6.40;;;9.40;99.90;;;;;;5076035;28;20243;-63
2022/06/03 02:08:00;;;;;;;8.80;8.00;;;9.40;99.90;;;;;;5075436;28;20238;-62
2022/06/03 02:11:00;;;;;;;8.15;7.53;;;9.40;99.90;;;;;;5075223;28;20191;-65
2022/06/03 02:13:52;;;;;;;8.30;7.40;;;9.40;99.90;;;;;;5075090;28;20235;-63
2022/06/03 02:16:56;;;;;;;10.13;7.60;;;9.40;99.90;;;;;;5061875;28;20313;-64
2022/06/03 02:19:36;;;;;;;6.68;6.07;;;9.40;99.90;;;;;;5074756;28;20187;-62
2022/06/03 02:22:38;;;;;;;14.15;8.40;;;9.30;99.90;;;;;;5074638;28;20239;-63
2022/06/03 02:25:39;;;;;;;13.20;8.65;;;9.30;99.90;;;;;;5074489;28;20705;-62
2022/06/03 02:28:34;;;;;;;8.82;8.00;;;9.20;99.90;;;;;;5074715;28;20194;-62
2022/06/03 02:31:33;;;;;;;8.35;7.53;;;9.20;99.90;;;;;;5074491;28;20230;-62
2022/06/03 02:34:24;;;;;;;8.48;7.68;;;9.20;99.90;;;;;;5069046;28;20639;-62
2022/06/03 02:37:08;;;;;;;9.15;8.07;;;9.10;99.90;;;;;;5074717;28;20226;-62
2022/06/03 02:40:00;;;;;;;9.25;8.45;;;9.10;99.90;;;;;;5074316;28;20278;-63
2022/06/03 02:43:04;;;;;;;9.43;8.52;;;9.10;99.90;;;;;;5074159;28;20650;-62
2022/06/03 02:45:56;;;;;;;8.25;7.53;;;9.10;99.90;;;;;;5023426;28;20727;-62
2022/06/03 02:49:08;;;;;;;8.23;7.55;;;9.10;99.90;;;;;;5073278;28;20197;-62
2022/06/03 02:52:01;;;;;;;8.50;7.78;;;9.10;99.90;;;;;;5048509;28;20661;-61
2022/06/03 02:54:56;;;;;;;8.35;7.65;;;9.10;99.90;;;;;;5073759;28;20740;-63
2022/06/03 02:57:41;;;;;;;8.68;7.85;;;9.00;99.90;;;;;;5074062;28;20187;-61
2022/06/03 03:00:20;;;;;;;9.65;8.65;;;9.00;99.90;;;;;;5074314;28;20191;-61
2022/06/03 03:03:17;;;;;;;9.88;8.82;;;9.00;99.90;;;;;;5074133;28;20225;-62
2022/06/03 03:06:07;;;;;;;10.40;9.13;;;9.00;99.90;;;;;;5071535;28;20232;-62
2022/06/03 03:08:58;;;;;;;9.90;9.00;;;8.90;99.90;;;;;;5074077;28;20187;-62
2022/06/03 03:11:58;;;;;;;9.93;9.02;;;9.00;99.90;;;;;;5073818;28;20187;-62
2022/06/03 03:15:01;;;;;;;11.02;9.15;;;9.00;99.90;;;;;;5073739;28;20292;-63
2022/06/03 03:17:58;;;;;;;11.13;10.02;;;9.00;99.90;;;;;;5073328;28;20220;-62
2022/06/03 03:20:54;;;;;;;10.30;9.32;;;9.00;99.90;;;;;;5071176;28;20816;-62
2022/06/03 03:24:14;;;;;;;10.82;9.75;;;9.00;99.90;;;;;;5051032;28;20264;-62
2022/06/03 03:27:02;;;;;;;10.40;9.50;;;9.00;99.90;;;;;;5073223;28;20315;-63
2022/06/03 03:29:50;;;;;;;10.30;9.27;;;9.10;99.90;;;;;;5073531;28;20615;-62
2022/06/03 03:32:33;;;;;;;10.43;9.38;;;9.10;99.90;;;;;;5073540;28;20224;-62
2022/06/03 03:35:44;;;;;;;11.35;9.85;;;9.10;99.90;;;;;;5072899;28;20221;-63
2022/06/03 03:38:47;;;;;;;9.85;8.95;;;9.10;99.90;;;;;;5011233;28;20202;-62
2022/06/03 03:41:36;;;;;;;10.45;9.35;;;9.20;99.90;;;;;;5073412;28;20207;-62
2022/06/03 03:44:42;;;;;;;11.50;10.25;;;9.30;99.90;;;;;;5073498;28;20182;-62
2022/06/03 03:47:42;;;;;;;13.00;9.77;;;9.40;99.90;;;;;;5073341;28;20208;-62
2022/06/03 03:50:52;;;;;;;12.98;9.70;;;9.40;99.90;;;;;;5039915;28;20249;-62
2022/06/03 03:54:02;;;;;;;10.45;9.38;;;9.50;99.90;;;;;;5065894;28;20624;-63
2022/06/03 03:57:02;;;;;;;9.40;8.50;;;9.80;99.90;;;;;;5072725;28;20789;-62
2022/06/03 04:00:10;;;;;;;8.83;8.03;;;10.70;99.90;;;;;;5072770;28;20479;-63
2022/06/03 04:03:17;;;;;;;8.37;7.77;;;11.60;99.90;;;;;;5071627;28;20461;-63
2022/06/03 04:10:41;;;;;;;7.93;7.13;;;13.30;99.90;;;;;;5106398;27;20593;-62
2022/06/03 04:13:45;;;;;;;8.23;6.43;;;13.80;99.90;;;;;;5066858;28;20459;-62
2022/06/03 04:16:35;;;;;;;7.77;7.17;;;14.20;99.90;;;;;;5066334;28;20483;-63
2022/06/03 04:19:32;;;;;;;9.93;6.83;;;14.60;99.90;;;;;;5092960;28;20494;-62
2022/06/03 04:22:29;;;;;;;6.57;6.07;;;14.90;99.50;;;;;;5071687;28;20834;-62
2022/06/03 04:25:44;;;;;;;7.10;6.60;;;15.10;98.00;;;;;;5082573;28;20505;-63
2022/06/03 04:28:44;;;;;;;7.50;6.00;;;15.40;96.70;;;;;;5028971;28;20477;-63
2022/06/03 04:32:07;;;;;;;8.90;5.47;;;15.70;94.80;;;;;;5096127;28;20507;-62
2022/06/03 04:35:03;;;;;;;7.97;5.60;;;15.80;93.70;;;;;;5106880;28;21010;-62
2022/06/03 04:38:10;;;;;;;9.97;6.57;;;16.00;92.60;;;;;;5090626;28;20548;-62
2022/06/03 04:41:11;;;;;;;8.53;6.00;;;16.30;91.00;;;;;;5090848;28;20837;-60
2022/06/03 04:44:32;;;;;;;8.50;6.30;;;16.50;89.20;;;;;;5096287;28;20462;-61
2022/06/03 04:47:36;;;;;;;14.40;6.73;;;16.50;86.30;;;;;;5106526;28;21066;-62
2022/06/03 04:51:07;;;;;;;7.77;6.37;;;16.50;84.70;;;;;;5077032;28;20460;-61
2022/06/03 04:54:12;;;;;;;18.10;7.23;;;16.40;83.70;;;;;;5085087;28;20496;-62
2022/06/03 04:57:26;;;;;;;13.63;7.50;;;16.20;83.50;;;;;;5057572;28;20557;-62
2022/06/03 05:00:17;;;;;;;16.00;9.30;;;16.10;83.10;;;;;;5082302;28;20880;-63
2022/06/03 05:03:32;;;;;;;15.67;9.40;;;16.00;82.70;;;;;;5074803;28;20455;-63
2022/06/03 05:06:39;;;;;;;15.67;8.57;;;16.10;82.50;;;;;;5098794;28;20981;-63
2022/06/03 05:09:52;;;;;;;10.20;8.47;;;16.10;82.00;;;;;;5107475;28;20517;-62
2022/06/03 05:12:59;;;;;;;14.97;8.27;;;16.10;81.10;;;;;;5108480;28;20489;-63
2022/06/03 05:16:01;;;;;;;16.10;8.50;;;16.10;81.30;;;;;;5097059;28;20470;-63
2022/06/03 05:18:43;;;;;;;14.00;8.77;;;16.10;79.70;;;;;;5089232;28;20567;-62
2022/06/03 05:21:47;;;;;;;11.33;7.90;;;16.20;79.40;;;;;;5075057;28;20465;-63
2022/06/03 05:24:51;;;;;;;13.93;7.77;;;16.30;78.70;;;;;;5074461;28;20458;-64
2022/06/03 05:27:43;;;;;;;13.57;8.20;;;16.30;78.70;;;;;;5072130;28;20501;-65
2022/06/03 05:30:34;;;;;;;9.03;8.10;;;16.50;77.50;;;;;;5075585;28;20436;-62
2022/06/03 05:33:40;;;;;;;9.57;7.70;;;16.50;76.40;;;;;;5069739;28;20475;-63
2022/06/03 05:36:43;;;;;;;11.80;7.80;;;16.70;75.40;;;;;;5069892;28;20479;-63
2022/06/03 05:39:53;;;;;;;11.23;8.13;;;16.90;74.30;;;;;;5068323;28;20633;-62
2022/06/03 05:42:42;;;;;;;15.07;8.40;;;17.10;73.00;;;;;;5038594;28;20456;-61
2022/06/03 05:45:54;;;;;;;11.60;8.20;;;17.50;71.70;;;;;;5069071;28;20459;-61
2022/06/03 05:48:31;;;;;;;13.20;7.60;;;17.70;69.70;;;;;;4994110;28;20577;-61
2022/06/03 05:51:07;;;;;;;10.87;7.27;;;17.80;69.00;;;;;;5061703;28;20451;-62
2022/06/03 05:53:40;;;;;;;9.03;7.30;;;17.90;67.30;;;;;;5075511;28;20451;-61
2022/06/03 05:56:38;;;;;;;9.93;7.20;;;17.80;66.30;;;;;;5074808;28;20502;-59
2022/06/03 05:59:17;;;;;;;9.40;6.87;;;17.80;65.50;;;;;;5072052;28;20440;-62
2022/06/03 06:01:58;;;;;;;11.60;7.57;;;17.80;65.50;;;;;;5059399;28;20848;-60
2022/06/03 06:04:30;;;;;;;10.67;7.67;;;17.70;65.40;;;;;;5075646;28;20436;-60
2022/06/03 06:07:07;;;;;;;10.00;6.73;;;17.60;65.40;;;;;;5082419;22;20525;-60
2022/06/03 06:09:46;;;;;;;8.63;6.30;;;17.50;65.60;;;;;;5053380;28;20448;-60
2022/06/03 06:12:22;;;;;;;8.90;6.27;;;17.50;64.00;;;;;;5053876;28;20256;-60
2022/06/03 06:15:11;;;;;;;9.37;6.50;;;17.40;64.00;;;;;;5053445;28;20528;-60
2022/06/03 06:17:50;;;;;;;5.53;5.03;;;17.30;64.00;;;;;;5014895;28;20429;-60
2022/06/03 06:20:29;;;;;;;5.90;5.40;;;17.30;64.10;;;;;;5014957;28;20458;-60
2022/06/03 06:23:04;;;;;;;6.53;5.90;;;17.10;64.80;;;;;;5027233;28;20433;-60
2022/06/03 06:25:38;;;;;;;6.20;5.70;;;17.00;63.90;;;;;;5034599;28;20868;-60
2022/06/03 06:28:15;;;;;;;5.80;5.30;;;16.90;64.10;;;;;;5033339;28;20789;-59
2022/06/03 06:30:57;;;;;;;7.23;5.00;;;16.90;64.10;;;;;;5034254;28;20436;-60
2022/06/03 06:33:46;;;;;;;5.70;5.20;;;16.90;64.00;;;;;;5034085;28;20434;-60
2022/06/03 06:36:57;;;;;;;4.97;4.47;;;16.80;63.60;;;;;;5032930;28;20500;-59
2022/06/03 06:39:47;;;;;;;5.30;4.80;;;16.80;63.60;;;;;;5033084;28;20532;-60
2022/06/03 06:42:26;;;;;;;7.17;4.33;;;16.70;63.40;;;;;;5034039;28;20434;-58
2022/06/03 06:45:06;;;;;;;4.57;4.07;;;16.70;63.40;;;;;;5034105;28;20437;-60
2022/06/03 06:47:39;;;;;;;4.40;4.00;;;16.70;63.40;;;;;;5033174;28;20814;-60
2022/06/03 06:50:15;;;;;;;6.40;5.00;;;16.80;63.20;;;;;;5033407;28;20508;-60
2022/06/03 06:52:55;;;;;;;4.60;4.07;;;16.90;63.00;;;;;;5033801;28;20437;-60
2022/06/03 06:55:32;;;;;;;6.70;4.17;;;17.10;62.70;;;;;;5032404;28;20499;-60
2022/06/03 06:58:03;;;;;;;6.57;4.23;;;17.20;62.20;;;;;;5033420;28;20437;-59
2022/06/03 07:00:33;;;;;;;6.13;3.83;;;17.30;61.80;;;;;;5033030;28;20456;-60
2022/06/03 07:03:06;;;;;;;4.33;3.93;;;17.50;61.20;;;;;;5032937;28;20524;-60
2022/06/03 07:05:38;;;;;;;4.60;3.90;;;17.60;60.30;;;;;;5033255;28;21026;-61
2022/06/03 07:08:10;;;;;;;5.47;3.97;;;17.70;59.70;;;;;;5033177;28;20524;-61
2022/06/03 07:10:47;;;;;;;5.27;3.57;;;17.80;59.30;;;;;;5032601;28;20449;-61
2022/06/03 07:13:21;;;;;;;3.47;3.17;;;17.90;58.90;;;;;;5032805;28;20516;-61
2022/06/03 07:16:02;;;;;;;11.13;3.50;;;18.00;58.30;;;;;;5033377;28;20500;-61
2022/06/03 07:21:38;;;;;;;3.23;2.93;;;18.10;57.40;;;;;;5032030;28;20421;-61
2022/06/03 07:24:13;;;;;;;5.00;2.90;;;18.30;57.20;;;;;;5032599;28;20449;-59
2022/06/03 07:26:45;;;;;;;2.60;2.40;;;18.40;56.70;;;;;;5032701;28;20559;-60
2022/06/03 07:29:18;;;;;;;3.27;2.97;;;18.50;56.40;;;;;;5032750;28;20509;-60
2022/06/03 07:31:49;;;;;;;3.03;2.73;;;18.60;55.80;;;;;;5032282;28;20469;-60
2022/06/03 07:34:22;;;;;;;4.37;3.17;;;18.70;55.50;;;;;;5033246;28;20480;-59
2022/06/03 07:36:55;;;;;;;2.90;2.63;;;18.70;55.20;;;;;;5032907;28;20461;-60
2022/06/03 07:39:53;;;;;;;3.00;2.80;;;18.70;54.90;;;;;;5032743;28;20870;-60
2022/06/03 07:42:28;;;;;;;3.57;3.20;;;18.80;54.80;;;;;;5018245;28;20875;-59
2022/06/03 07:45:20;;;;;;;3.70;3.40;;;18.90;54.60;;;;;;5032691;28;20425;-60
2022/06/03 07:47:48;;;;;;;3.27;2.77;;;19.00;54.10;;;;;;5032759;28;20532;-60
2022/06/03 07:50:21;;;;;;;6.93;3.27;;;19.00;53.70;;;;;;5031648;28;20586;-60
2022/06/03 07:52:54;;;;;;;3.43;2.80;;;19.10;53.50;;;;;;5032434;28;20437;-61
2022/06/03 07:55:24;;;;;;;5.50;4.20;;;19.20;53.10;;;;;;5032800;28;20544;-60
2022/06/03 07:57:52;;;;;;;5.13;2.97;;;19.30;52.50;;;;;;5032868;28;20460;-61
2022/06/03 08:00:22;;;;;;;4.40;2.90;;;19.40;52.10;;;;;;5031792;28;20453;-61
2022/06/03 08:03:02;;;;;;;3.33;2.63;;;19.50;51.90;;;;;;5032525;28;20453;-60
2022/06/03 08:05:31;;;;;;;2.83;2.63;;;19.70;51.70;;;;;;5032537;28;20580;-60
2022/06/03 08:10:58;;;;;;;3.67;3.37;;;19.80;51.20;;;;;;5031412;28;20464;-59
2022/06/03 08:13:25;;;;;;;4.47;2.93;;;19.80;51.00;;;;;;5032648;28;20437;-60
2022/06/03 08:15:58;;;;;;;3.60;2.93;;;19.80;50.70;;;;;;5032327;28;20985;-61
2022/06/03 08:18:28;;;;;;;4.70;3.10;;;19.80;50.70;;;;;;5032170;28;20438;-60
2022/06/03 08:20:59;;;;;;;6.67;4.07;;;19.90;50.70;;;;;;5031446;28;20438;-60
2022/06/03 08:23:30;;;;;;;3.10;2.80;;;19.80;50.30;;;;;;5032051;28;20434;-59
2022/06/03 08:26:00;;;;;;;3.70;3.10;;;19.90;50.30;;;;;;5032396;28;20562;-60
2022/06/03 08:28:31;;;;;;;5.30;3.23;;;20.00;50.20;;;;;;5031120;28;20552;-59
2022/06/03 08:31:03;;;;;;;3.27;2.97;;;20.00;50.00;;;;;;5032271;28;20469;-60
2022/06/03 08:33:39;;;;;;;4.50;3.53;;;20.00;50.00;;;;;;5031572;28;20520;-59
2022/06/03 08:36:08;;;;;;;3.10;2.80;;;20.10;49.80;;;;;;5031308;28;20567;-60
2022/06/03 08:38:41;;;;;;;3.30;3.00;;;20.20;49.70;;;;;;5031412;28;20449;-60
2022/06/03 08:41:21;;;;;;;4.13;3.00;;;20.30;49.50;;;;;;5032431;28;20846;-61
2022/06/03 08:44:08;;;;;;;3.70;3.40;;;20.50;48.70;;;;;;5032553;28;20434;-59
2022/06/03 08:46:47;;;;;;;3.13;2.83;;;20.50;48.00;;;;;;5031232;28;20552;-60
2022/06/03 08:49:20;;;;;;;3.50;3.10;;;20.60;47.60;;;;;;5031577;28;20881;-60
2022/06/03 08:51:51;;;;;;;5.10;3.23;;;20.70;47.80;;;;;;5032358;28;20441;-61
2022/06/03 08:54:26;;;;;;;3.20;2.77;;;20.80;47.80;;;;;;5031391;28;20469;-60
2022/06/03 08:56:57;;;;;;;3.50;3.20;;;20.80;47.40;;;;;;5035044;28;21034;-61
2022/06/03 08:59:30;;;;;;;3.33;3.03;;;20.80;47.10;;;;;;5017227;28;20481;-59
2022/06/03 09:02:03;;;;;;;4.27;3.33;;;20.90;46.90;;;;;;5015500;28;20481;-59
2022/06/03 09:04:35;;;;;;;3.93;3.53;;;21.10;46.90;;;;;;5015490;28;20466;-59
2022/06/03 09:07:07;;;;;;;3.30;2.83;;;21.20;46.40;;;;;;5034344;28;20489;-60
2022/06/03 09:09:43;;;;;;;3.87;3.47;;;21.20;46.20;;;;;;5035698;28;20476;-60
2022/06/03 09:12:19;;;;;;;4.20;3.03;;;21.20;45.60;;;;;;5035701;28;20429;-60
2022/06/03 09:14:49;;;;;;;3.80;3.50;;;21.30;45.30;;;;;;5034728;28;20441;-60
2022/06/03 09:17:36;;;;;;;5.57;3.37;;;21.40;44.80;;;;;;5034998;28;20515;-58
2022/06/03 09:20:11;;;;;;;7.93;3.33;;;21.50;44.60;;;;;;5035222;28;20504;-60
2022/06/03 09:22:39;;;;;;;2.80;2.60;;;21.50;44.40;;;;;;5034379;28;20467;-59
2022/06/03 09:25:11;;;;;;;3.30;3.00;;;21.50;44.30;;;;;;5035161;28;20498;-59
2022/06/03 09:27:41;;;;;;;3.23;2.80;;;21.50;44.40;;;;;;5034735;28;20932;-59
2022/06/03 09:30:11;;;;;;;3.20;3.00;;;21.50;44.40;;;;;;5034367;28;20550;-59
2022/06/03 09:32:49;;;;;;;3.57;2.60;;;21.60;44.20;;;;;;5035071;28;21019;-65
2022/06/03 09:35:20;;;;;;;4.10;3.30;;;21.70;44.00;;;;;;5034968;28;20845;-59
2022/06/03 09:37:51;;;;;;;3.50;3.03;;;21.80;43.80;;;;;;5035193;28;20495;-59
2022/06/03 09:40:23;;;;;;;6.73;3.87;;;21.90;43.80;;;;;;5035106;28;20850;-59
2022/06/03 09:42:55;;;;;;;3.20;2.90;;;22.00;43.80;;;;;;5035206;28;20422;-60
2022/06/03 09:45:24;;;;;;;3.43;3.07;;;22.10;43.70;;;;;;5034904;28;20522;-60
2022/06/03 09:47:53;;;;;;;2.77;2.57;;;22.20;43.40;;;;;;5034942;28;20484;-60
2022/06/03 09:50:24;;;;;;;4.87;3.37;;;22.20;43.30;;;;;;5034703;28;20521;-60
2022/06/03 09:53:04;;;;;;;3.13;2.53;;;22.30;43.30;;;;;;5035120;28;20430;-59
2022/06/03 09:55:36;;;;;;;3.07;2.63;;;22.40;42.90;;;;;;5034949;28;20492;-58
2022/06/03 09:58:04;;;;;;;3.33;3.00;;;22.50;43.00;;;;;;5034731;28;20441;-58
2022/06/03 10:00:41;;;;;;;2.60;2.30;;;22.50;42.90;;;;;;5034451;28;20438;-58
2022/06/03 10:03:11;;;;;;;4.43;2.87;;;22.60;42.90;;;;;;5034769;28;20437;-59
2022/06/03 10:05:39;;;;;;;5.80;2.70;;;22.70;42.60;;;;;;5034417;28;20531;-59
2022/06/03 10:08:09;;;;;;;2.63;2.43;;;22.70;42.10;;;;;;5034626;28;20426;-61
2022/06/03 10:13:22;;;;;;;2.80;2.17;;;22.70;42.10;;;;;;5033979;28;20534;-60
2022/06/03 10:15:53;;;;;;;3.60;2.60;;;22.80;42.20;;;;;;5034170;28;20499;-60
2022/06/03 10:18:29;;;;;;;2.53;2.33;;;22.90;41.90;;;;;;5034824;28;20742;-60
2022/06/03 10:20:58;;;;;;;3.20;2.13;;;23.10;41.70;;;;;;5033932;28;20784;-60
2022/06/03 10:23:29;;;;;;;4.17;2.30;;;23.20;41.30;;;;;;5034112;28;20456;-60
2022/06/03 10:26:01;;;;;;;3.67;2.90;;;23.40;41.00;;;;;;5033806;28;21027;-60
2022/06/03 10:28:34;;;;;;;2.80;2.60;;;23.40;41.00;;;;;;5033081;28;20829;-61
2022/06/03 10:31:05;;;;;;;3.60;2.63;;;23.40;41.00;;;;;;5014261;28;20473;-60
2022/06/03 10:33:35;;;;;;;2.60;2.40;;;23.40;41.20;;;;;;5023666;28;20585;-60
2022/06/03 10:36:04;;;;;;;4.77;2.83;;;23.50;41.30;;;;;;5033605;28;20535;-60
2022/06/03 10:38:37;;;;;;;2.83;2.63;;;23.60;41.10;;;;;;5034181;28;20468;-60
2022/06/03 10:41:08;;;;;;;3.17;2.83;;;23.70;41.30;;;;;;5034496;28;20860;-59
2022/06/03 10:43:36;;;;;;;3.90;3.20;;;23.50;41.00;;;;;;5034345;28;20444;-59
2022/06/03 10:46:12;;;;;;;3.80;2.80;;;23.50;41.30;;;;;;5034006;28;20523;-60
2022/06/03 10:48:41;;;;;;;3.53;3.23;;;23.60;41.40;;;;;;5033815;28;20495;-60
2022/06/03 10:51:18;;;;;;;4.30;3.17;;;23.70;41.30;;;;;;5033763;28;20485;-60
2022/06/03 11:02:29;;;;;;;3.67;3.37;;;23.80;41.00;;;;;;5033382;28;20416;-60
2022/06/03 11:05:11;;;;;;;2.97;2.33;;;23.90;41.10;;;;;;5033011;28;20951;-61
2022/06/03 11:07:39;;;;;;;3.43;3.13;;;24.00;41.10;;;;;;5033119;28;20511;-59
2022/06/03 11:10:10;;;;;;;4.53;3.07;;;24.10;41.00;;;;;;5033431;28;20984;-60
2022/06/03 11:12:37;;;;;;;2.93;2.73;;;24.00;40.90;;;;;;5033142;28;20437;-62
2022/06/03 11:15:31;;;;;;;3.60;3.30;;;23.90;41.00;;;;;;5032999;28;20453;-60
2022/06/03 11:18:00;;;;;;;5.00;3.00;;;23.90;41.00;;;;;;5032325;28;20453;-61
2022/06/03 11:20:36;;;;;;;3.40;3.10;;;23.90;41.10;;;;;;5033108;28;20457;-60
2022/06/03 11:23:07;;;;;;;3.17;2.90;;;23.90;41.10;;;;;;5032978;28;20905;-61
2022/06/03 11:25:37;;;;;;;3.50;2.93;;;24.10;41.00;;;;;;5033277;28;20473;-59
2022/06/03 11:28:08;;;;;;;8.70;7.90;;;24.20;40.70;;;;;;5033290;28;20479;-59
2022/06/03 11:30:44;;;;;;;7.33;6.60;;;24.20;40.50;;;;;;5032945;28;20470;-59
2022/06/03 11:33:18;;;;;;;8.17;4.33;;;24.40;40.60;;;;;;5033388;28;20429;-58
2022/06/03 11:35:51;;;;;;;5.63;4.13;;;24.40;40.50;;;;;;5032958;28;20569;-59
2022/06/03 11:38:23;;;;;;;3.40;3.10;;;24.40;40.50;;;;;;5032749;28;20809;-59
2022/06/03 11:40:54;;;;;;;2.70;2.50;;;24.50;40.30;;;;;;5032915;28;20430;-59
2022/06/03 11:43:28;;;;;;;4.53;2.80;;;24.50;40.00;;;;;;5033455;28;20543;-60
2022/06/03 11:46:02;;;;;;;3.73;2.50;;;24.70;40.10;;;;;;5032929;28;20560;-60
2022/06/03 11:48:33;;;;;;;2.90;2.23;;;24.90;39.70;;;;;;5032676;28;20913;-60
2022/06/03 11:51:03;;;;;;;4.40;2.67;;;24.90;39.00;;;;;;5032642;28;20556;-60
2022/06/03 11:53:33;;;;;;;3.00;2.70;;;24.90;38.80;;;;;;5032438;28;20529;-60
2022/06/03 11:56:03;;;;;;;2.80;2.50;;;25.00;38.70;;;;;;5032465;28;20501;-59
2022/06/03 11:58:57;;;;;;;2.70;2.50;;;25.40;38.30;;;;;;5032783;28;20437;-59
2022/06/03 12:01:31;;;;;;;2.87;2.17;;;26.00;37.30;;;;;;5032472;28;20848;-60
2022/06/03 12:04:07;;;;;;;4.10;3.00;;;26.40;36.60;;;;;;5032257;28;20510;-60
2022/06/03 12:06:41;;;;;;;4.50;2.97;;;26.70;36.10;;;;;;5033567;28;20490;-61
2022/06/03 12:09:19;;;;;;;2.90;2.67;;;27.00;35.60;;;;;;5032164;28;20440;-60
2022/06/03 12:14:45;;;;;;;2.70;2.50;;;27.40;34.90;;;;;;5032385;28;20409;-61
2022/06/03 12:17:31;;;;;;;3.47;2.70;;;27.50;34.70;;;;;;5032219;28;20511;-59
2022/06/03 12:20:00;;;;;;;3.20;2.67;;;27.80;34.40;;;;;;5032699;28;20439;-60
2022/06/03 12:22:41;;;;;;;3.03;2.73;;;28.10;33.90;;;;;;5032409;28;20945;-60
2022/06/03 12:25:43;;;;;;;3.00;2.40;;;28.10;33.90;;;;;;5032805;28;20436;-60
2022/06/03 12:28:20;;;;;;;2.80;2.57;;;28.00;34.20;;;;;;5033318;28;20430;-60
2022/06/03 12:30:51;;;;;;;3.10;2.90;;;28.00;34.20;;;;;;5034750;28;20475;-61
2022/06/03 12:33:29;;;;;;;2.80;2.60;;;27.80;34.00;;;;;;5036777;28;20429;-59
2022/06/03 12:36:01;;;;;;;3.10;2.80;;;27.60;34.20;;;;;;5036604;28;20465;-62
2022/06/03 12:38:40;;;;;;;3.20;2.90;;;27.60;34.40;;;;;;5036360;28;20903;-60
2022/06/03 12:41:07;;;;;;;2.57;2.37;;;27.60;34.40;;;;;;5037619;28;20460;-59
2022/06/03 12:44:00;;;;;;;4.27;2.43;;;27.30;34.50;;;;;;5036048;28;21013;-59
2022/06/03 12:46:43;;;;;;;2.43;2.20;;;26.80;35.00;;;;;;5036033;28;20838;-59
2022/06/03 12:49:20;;;;;;;3.50;2.70;;;26.40;35.70;;;;;;5035978;28;20434;-59
2022/06/03 12:51:59;;;;;;;2.60;2.40;;;26.10;36.10;;;;;;5034883;28;20469;-60
2022/06/03 12:54:28;;;;;;;3.10;2.77;;;25.90;36.50;;;;;;5035806;28;20429;-60
2022/06/03 12:57:05;;;;;;;2.83;2.63;;;25.80;36.90;;;;;;5035769;28;20461;-59
2022/06/03 12:59:44;;;;;;;3.93;3.10;;;25.80;37.10;;;;;;5033119;28;20504;-59
2022/06/03 13:02:17;;;;;;;3.60;2.70;;;25.90;36.90;;;;;;5035693;28;20898;-58
2022/06/03 13:05:08;;;;;;;2.70;2.43;;;25.90;36.50;;;;;;5035115;28;20458;-60
2022/06/03 13:07:39;;;;;;;3.90;2.83;;;25.80;36.60;;;;;;5030550;28;20479;-61
2022/06/03 13:10:33;;;;;;;3.13;2.93;;;25.90;36.80;;;;;;5035492;28;20470;-60
2022/06/03 13:13:48;;;;;;;2.73;2.50;;;25.90;36.80;;;;;;5026695;28;21005;-60
2022/06/03 13:16:45;;;;;;;3.80;2.87;;;25.90;36.90;;;;;;4990444;28;20482;-59
2022/06/03 13:19:49;;;;;;;3.20;3.00;;;25.90;36.90;;;;;;5028201;28;20442;-60
2022/06/03 13:22:30;;;;;;;3.30;3.00;;;25.80;37.20;;;;;;5017031;28;20421;-59
2022/06/03 13:25:31;;;;;;;4.43;2.97;;;25.60;37.50;;;;;;5034603;28;20517;-61
2022/06/03 13:28:35;;;;;;;4.03;2.47;;;25.50;37.70;;;;;;5034677;28;20482;-59
2022/06/03 13:31:09;;;;;;;2.50;2.30;;;25.50;37.70;;;;;;5033385;28;20481;-59
2022/06/03 13:34:14;;;;;;;4.60;2.53;;;25.50;37.60;;;;;;5034771;28;20526;-59
2022/06/03 13:36:47;;;;;;;3.20;2.70;;;25.50;37.50;;;;;;5028666;28;20501;-59
2022/06/03 13:39:35;;;;;;;2.57;2.20;;;25.40;37.60;;;;;;5032551;28;20460;-60
2022/06/03 13:45:22;;;;;;;2.30;2.10;;;25.10;38.40;;;;;;5034223;28;20832;-59
2022/06/03 13:47:52;;;;;;;3.03;2.83;;;25.00;38.30;;;;;;5034090;28;20552;-59
2022/06/03 13:50:35;;;;;;;4.03;2.27;;;24.90;38.30;;;;;;5034184;28;20489;-58
2022/06/03 13:53:06;;;;;;;2.40;2.20;;;24.80;38.40;;;;;;5033145;28;20535;-58
2022/06/03 13:55:47;;;;;;;2.70;2.13;;;24.80;38.50;;;;;;5033994;28;20485;-58
2022/06/03 13:58:19;;;;;;;3.03;2.13;;;24.80;38.50;;;;;;5033790;28;20492;-59
2022/06/03 14:01:00;;;;;;;2.53;2.33;;;24.90;38.40;;;;;;5033428;28;20560;-58
2022/06/03 14:03:33;;;;;;;2.47;2.27;;;25.20;38.10;;;;;;5033602;28;20553;-58
2022/06/03 14:06:07;;;;;;;3.37;2.37;;;25.40;37.40;;;;;;5033130;28;20535;-60
2022/06/03 14:08:39;;;;;;;2.57;2.37;;;25.60;37.20;;;;;;5033938;28;20925;-58
2022/06/03 14:11:11;;;;;;;3.50;2.57;;;25.70;36.80;;;;;;5032902;28;20900;-58
2022/06/03 14:13:46;;;;;;;2.60;2.27;;;25.90;36.70;;;;;;5034375;28;20836;-59
2022/06/03 14:16:19;;;;;;;2.33;2.13;;;25.90;36.50;;;;;;5033727;28;20625;-60
2022/06/03 14:18:50;;;;;;;3.13;2.53;;;25.80;36.50;;;;;;5033233;28;20872;-60
2022/06/03 14:21:24;;;;;;;2.17;2.00;;;25.90;36.60;;;;;;5033236;28;20540;-59
2022/06/03 14:23:53;;;;;;;2.40;2.20;;;26.10;36.60;;;;;;5032591;28;20458;-60
2022/06/03 14:26:25;;;;;;;1.90;1.67;;;26.40;36.10;;;;;;5033674;28;20638;-58
2022/06/03 14:28:57;;;;;;;2.47;2.27;;;26.50;35.60;;;;;;5032943;28;20514;-58
2022/06/03 14:31:37;;;;;;;2.90;2.43;;;26.60;35.60;;;;;;5033069;28;20558;-59
2022/06/03 14:34:25;;;;;;;2.60;2.33;;;26.60;35.20;;;;;;5033088;28;20517;-58
2022/06/03 14:36:55;;;;;;;3.00;2.80;;;26.70;35.20;;;;;;5031980;28;20570;-60
2022/06/03 14:39:25;;;;;;;2.47;2.00;;;26.70;35.10;;;;;;5033283;28;20470;-59